Time;durP1;ratioP1;P1;durP2;ratioP2;P2;SDS_P1;SDS_P2;PMS_P1;PMS_P2;Temp;Humidity;BMP_temperature;BMP_pressure;BME280_temperature;BME280_humidity;BME280_pressure;Samples;Min_cycle;Max_cycle;Signal;HPM_P1;HPM_P2
2021/10/23 00:02:14;;;;;;;7.95;3.15;;;;;;;;;;8224871;28;20349;-73
2021/10/23 00:06:19;;;;;;;13.80;3.55;;;;;;;;;;8211277;28;20427;-74
2021/10/23 00:10:24;;;;;;;14.70;3.55;;;;;;;;;;8223882;28;20502;-73
2021/10/23 00:14:29;;;;;;;13.23;3.80;;;;;;;;;;8222877;28;20053;-73
2021/10/23 00:18:34;;;;;;;12.57;3.30;;;;;;;;;;8225668;28;20072;-73
2021/10/23 00:22:41;;;;;;;11.13;3.38;;;;;;;;;;8223233;28;20376;-73
2021/10/23 00:26:46;;;;;;;11.45;2.97;;;;;;;;;;8208600;28;20377;-73
2021/10/23 00:30:52;;;;;;;7.32;2.15;;;;;;;;;;8224573;28;20461;-73
2021/10/23 00:34:57;;;;;;;11.38;1.90;;;;;;;;;;8224457;28;20456;-72
2021/10/23 00:39:02;;;;;;;6.82;1.77;;;;;;;;;;8224169;28;20364;-74
2021/10/23 00:43:08;;;;;;;12.45;1.85;;;;;;;;;;8227289;28;20037;-72
2021/10/23 00:47:19;;;;;;;11.27;2.00;;;;;;;;;;8232358;28;20476;-73
2021/10/23 00:51:25;;;;;;;9.93;2.25;;;;;;;;;;8220463;28;20464;-73
2021/10/23 00:55:30;;;;;;;3.22;1.23;;;;;;;;;;8228887;28;20345;-73
2021/10/23 00:59:36;;;;;;;4.85;1.20;;;;;;;;;;8228219;28;20372;-73
2021/10/23 01:03:41;;;;;;;4.57;1.17;;;;;;;;;;8230965;28;20364;-73
2021/10/23 01:07:46;;;;;;;3.28;1.00;;;;;;;;;;8228514;28;20389;-72
2021/10/23 01:11:52;;;;;;;4.63;1.50;;;;;;;;;;8229967;28;20440;-72
2021/10/23 01:15:58;;;;;;;5.22;1.02;;;;;;;;;;8229398;28;20049;-72
2021/10/23 01:20:03;;;;;;;3.88;1.30;;;;;;;;;;8211396;28;20440;-73
2021/10/23 01:24:10;;;;;;;2.70;0.90;;;;;;;;;;8227718;28;20368;-72
2021/10/23 01:28:15;;;;;;;5.95;0.98;;;;;;;;;;8228991;28;20372;-71
2021/10/23 01:32:20;;;;;;;6.30;1.20;;;;;;;;;;8227971;28;20357;-71
2021/10/23 01:36:26;;;;;;;5.63;2.00;;;;;;;;;;8229214;28;20488;-71
2021/10/23 01:40:33;;;;;;;4.30;1.35;;;;;;;;;;8228836;28;20468;-71
2021/10/23 01:44:38;;;;;;;3.85;1.58;;;;;;;;;;8228612;28;20404;-72
2021/10/23 01:48:43;;;;;;;4.80;1.15;;;;;;;;;;8227419;28;20464;-74
2021/10/23 01:52:50;;;;;;;3.17;1.40;;;;;;;;;;8227435;28;20495;-72
2021/10/23 01:56:55;;;;;;;3.50;1.38;;;;;;;;;;8227743;28;20365;-73
2021/10/23 02:01:00;;;;;;;2.97;0.82;;;;;;;;;;8228452;28;20519;-73
2021/10/23 02:05:07;;;;;;;2.65;1.33;;;;;;;;;;8228791;28;20445;-72
2021/10/23 02:09:12;;;;;;;1.88;0.95;;;;;;;;;;8228555;28;20371;-73
2021/10/23 02:13:17;;;;;;;1.33;0.50;;;;;;;;;;8229599;28;20485;-73
2021/10/23 02:17:23;;;;;;;4.53;0.80;;;;;;;;;;8226279;28;20379;-73
2021/10/23 02:21:28;;;;;;;2.08;0.70;;;;;;;;;;8227748;28;20483;-73
2021/10/23 02:25:33;;;;;;;2.95;0.57;;;;;;;;;;8226417;28;20461;-73
2021/10/23 02:29:38;;;;;;;4.25;1.15;;;;;;;;;;8210280;28;20380;-72
2021/10/23 02:33:43;;;;;;;3.00;0.82;;;;;;;;;;8227663;28;20468;-72
2021/10/23 02:37:49;;;;;;;1.08;0.50;;;;;;;;;;8226864;28;20329;-72
2021/10/23 02:41:54;;;;;;;2.22;0.50;;;;;;;;;;8226876;28;20073;-73
2021/10/23 02:45:59;;;;;;;0.63;0.55;;;;;;;;;;8225655;28;20075;-73
2021/10/23 02:50:07;;;;;;;0.40;0.40;;;;;;;;;;8226833;28;20338;-72
2021/10/23 02:54:12;;;;;;;3.72;0.68;;;;;;;;;;8227317;28;20049;-73
2021/10/23 02:58:18;;;;;;;3.00;0.65;;;;;;;;;;8209648;28;20384;-73
2021/10/23 03:02:23;;;;;;;1.35;0.60;;;;;;;;;;8226014;28;20068;-72
2021/10/23 03:06:28;;;;;;;0.55;0.50;;;;;;;;;;8225500;28;20475;-72
2021/10/23 03:10:34;;;;;;;1.60;0.55;;;;;;;;;;8224625;28;20407;-72
2021/10/23 03:14:39;;;;;;;0.88;0.45;;;;;;;;;;8225593;28;20376;-73
2021/10/23 03:18:45;;;;;;;4.55;0.75;;;;;;;;;;8208402;28;20463;-73
2021/10/23 03:22:50;;;;;;;3.60;0.70;;;;;;;;;;8225636;28;20369;-74
2021/10/23 03:26:55;;;;;;;3.85;0.68;;;;;;;;;;8225159;28;20392;-72
2021/10/23 03:31:00;;;;;;;6.57;0.80;;;;;;;;;;8226098;28;20361;-72
2021/10/23 03:35:07;;;;;;;4.95;1.08;;;;;;;;;;8209107;28;20355;-73
2021/10/23 03:39:12;;;;;;;1.33;0.80;;;;;;;;;;8224258;28;20037;-72
2021/10/23 03:43:17;;;;;;;2.10;1.23;;;;;;;;;;8239872;28;20457;-72
2021/10/23 03:47:22;;;;;;;2.22;0.82;;;;;;;;;;8226193;28;20373;-72
2021/10/23 03:51:28;;;;;;;2.67;0.80;;;;;;;;;;8224181;28;20471;-72
2021/10/23 03:55:33;;;;;;;2.20;1.35;;;;;;;;;;8207875;28;20591;-72
2021/10/23 03:59:38;;;;;;;5.32;1.23;;;;;;;;;;8225656;28;20403;-72
2021/10/23 04:03:43;;;;;;;3.67;1.30;;;;;;;;;;8224986;28;20468;-73
2021/10/23 04:07:48;;;;;;;3.90;1.30;;;;;;;;;;8223410;28;20361;-73
2021/10/23 04:11:54;;;;;;;4.88;1.05;;;;;;;;;;8225707;28;20668;-73
2021/10/23 04:15:59;;;;;;;3.15;1.13;;;;;;;;;;8224381;28;20499;-73
2021/10/23 04:20:08;;;;;;;5.95;1.92;;;;;;;;;;8231301;28;20057;-74
2021/10/23 04:24:13;;;;;;;2.53;0.98;;;;;;;;;;8229357;28;20373;-73
2021/10/23 04:28:19;;;;;;;7.15;1.92;;;;;;;;;;8231698;28;20041;-73
2021/10/23 04:32:24;;;;;;;4.55;1.20;;;;;;;;;;8229600;28;20384;-74
2021/10/23 04:36:30;;;;;;;3.15;1.60;;;;;;;;;;8230957;28;20325;-73
2021/10/23 04:40:38;;;;;;;4.78;1.08;;;;;;;;;;8229968;28;20072;-72
2021/10/23 04:44:44;;;;;;;4.50;1.50;;;;;;;;;;8230677;28;20369;-72
2021/10/23 04:48:51;;;;;;;4.60;1.27;;;;;;;;;;8246569;28;20368;-73
2021/10/23 04:52:55;;;;;;;3.47;1.10;;;;;;;;;;8229509;28;20376;-73
2021/10/23 04:57:00;;;;;;;4.57;1.08;;;;;;;;;;8214418;28;20484;-73
2021/10/23 05:01:06;;;;;;;2.78;1.10;;;;;;;;;;8228931;28;20833;-74
2021/10/23 05:05:11;;;;;;;6.53;1.10;;;;;;;;;;8213699;28;20404;-73
2021/10/23 05:09:16;;;;;;;6.45;1.00;;;;;;;;;;8233396;28;20372;-73
2021/10/23 05:13:21;;;;;;;5.28;1.52;;;;;;;;;;8231213;28;20396;-72
2021/10/23 05:17:27;;;;;;;5.53;1.10;;;;;;;;;;8229615;28;20053;-74
2021/10/23 05:21:32;;;;;;;5.97;1.63;;;;;;;;;;8230438;28;20403;-72
2021/10/23 05:25:37;;;;;;;5.28;1.45;;;;;;;;;;8231415;28;20469;-74
2021/10/23 05:29:43;;;;;;;5.20;1.10;;;;;;;;;;8228260;28;20482;-72
2021/10/23 05:33:48;;;;;;;3.33;0.90;;;;;;;;;;8229325;28;20107;-74
2021/10/23 05:37:53;;;;;;;4.68;1.00;;;;;;;;;;8228588;28;20042;-73
2021/10/23 05:41:58;;;;;;;4.70;1.35;;;;;;;;;;8229894;28;20345;-72
2021/10/23 05:46:03;;;;;;;8.38;1.65;;;;;;;;;;8232480;28;20049;-73
2021/10/23 05:50:11;;;;;;;9.05;1.77;;;;;;;;;;8228647;28;20348;-73
2021/10/23 05:54:16;;;;;;;6.40;1.48;;;;;;;;;;8229095;28;20049;-72
2021/10/23 05:58:22;;;;;;;8.13;1.55;;;;;;;;;;8228714;28;20449;-73
2021/10/23 06:02:29;;;;;;;5.15;1.73;;;;;;;;;;8228121;28;20502;-73
2021/10/23 06:06:35;;;;;;;7.63;2.28;;;;;;;;;;8244331;28;20360;-73
2021/10/23 06:10:40;;;;;;;5.72;1.98;;;;;;;;;;8228178;28;20476;-73
2021/10/23 06:14:45;;;;;;;6.93;2.15;;;;;;;;;;8228732;28;20377;-73
2021/10/23 06:18:50;;;;;;;11.60;1.60;;;;;;;;;;8210351;28;20496;-72
2021/10/23 06:22:56;;;;;;;7.75;1.60;;;;;;;;;;8225969;28;20045;-73
2021/10/23 06:27:01;;;;;;;9.95;2.28;;;;;;;;;;8227255;28;20476;-73
2021/10/23 06:31:08;;;;;;;6.55;2.03;;;;;;;;;;8227263;28;20380;-73
2021/10/23 06:35:13;;;;;;;11.60;1.63;;;;;;;;;;8225999;28;20159;-73
2021/10/23 06:39:18;;;;;;;11.05;3.25;;;;;;;;;;8226518;28;20534;-74
2021/10/23 06:43:25;;;;;;;19.25;2.90;;;;;;;;;;8227604;28;20375;-73
2021/10/23 06:47:30;;;;;;;16.20;5.05;;;;;;;;;;8225018;28;20049;-73
2021/10/23 06:51:37;;;;;;;5.15;2.22;;;;;;;;;;8227945;28;20107;-74
2021/10/23 06:55:42;;;;;;;10.10;2.90;;;;;;;;;;8225435;28;20333;-73
2021/10/23 06:59:47;;;;;;;8.85;2.45;;;;;;;;;;8225002;28;20053;-73
2021/10/23 07:03:52;;;;;;;5.88;0.98;;;;;;;;;;8225115;28;20350;-73
2021/10/23 07:07:59;;;;;;;5.57;1.52;;;;;;;;;;8228515;28;20375;-71
2021/10/23 07:12:04;;;;;;;6.40;1.77;;;;;;;;;;8225285;28;20357;-73
2021/10/23 07:16:11;;;;;;;6.95;2.72;;;;;;;;;;8175753;28;20480;-73
2021/10/23 07:20:16;;;;;;;10.93;2.70;;;;;;;;;;8225214;28;20071;-74
2021/10/23 07:24:22;;;;;;;7.03;1.50;;;;;;;;;;8226078;28;20393;-74
2021/10/23 07:28:27;;;;;;;5.15;1.60;;;;;;;;;;8227332;28;20064;-73
2021/10/23 07:32:32;;;;;;;9.35;1.90;;;;;;;;;;8226174;28;20360;-74
2021/10/23 07:36:37;;;;;;;7.38;1.95;;;;;;;;;;8225662;28;20400;-72
2021/10/23 07:40:43;;;;;;;8.05;1.70;;;;;;;;;;8224495;28;20097;-73
2021/10/23 07:44:48;;;;;;;5.90;1.90;;;;;;;;;;8224859;28;20452;-71
2021/10/23 07:48:54;;;;;;;7.13;1.30;;;;;;;;;;8225952;28;20361;-73
2021/10/23 07:53:02;;;;;;;8.43;1.95;;;;;;;;;;8224678;28;20404;-74
2021/10/23 07:57:07;;;;;;;6.32;1.88;;;;;;;;;;8226043;28;20049;-72
2021/10/23 08:01:14;;;;;;;6.35;1.73;;;;;;;;;;8224736;28;20330;-75
2021/10/23 08:05:22;;;;;;;8.07;2.97;;;;;;;;;;8225567;28;20472;-73
2021/10/23 08:09:29;;;;;;;9.75;2.65;;;;;;;;;;8225557;28;20462;-72
2021/10/23 08:13:35;;;;;;;8.73;1.45;;;;;;;;;;8224023;28;20054;-74
2021/10/23 08:17:42;;;;;;;3.40;1.65;;;;;;;;;;8223153;28;20464;-71
2021/10/23 08:21:47;;;;;;;6.43;1.92;;;;;;;;;;8222858;28;20049;-73
2021/10/23 08:25:53;;;;;;;6.32;1.70;;;;;;;;;;8224803;28;20480;-73
2021/10/23 08:30:00;;;;;;;6.55;1.42;;;;;;;;;;8224328;28;20465;-73
2021/10/23 08:34:06;;;;;;;9.68;1.75;;;;;;;;;;8223939;28;20338;-72
2021/10/23 08:38:11;;;;;;;6.00;1.60;;;;;;;;;;8238789;28;20071;-72
2021/10/23 08:42:18;;;;;;;7.70;1.80;;;;;;;;;;8224276;28;20356;-73
2021/10/23 08:46:28;;;;;;;6.50;1.70;;;;;;;;;;8222955;28;20076;-73
2021/10/23 08:50:37;;;;;;;6.93;1.23;;;;;;;;;;8223293;28;20342;-73
2021/10/23 08:54:43;;;;;;;10.55;1.30;;;;;;;;;;8222964;28;20388;-71
2021/10/23 08:58:48;;;;;;;8.27;1.35;;;;;;;;;;8223733;28;20481;-73
2021/10/23 09:02:53;;;;;;;7.63;1.80;;;;;;;;;;8224810;28;20488;-73
2021/10/23 09:07:13;;;;;;;7.47;2.20;;;;;;;;;;8228935;28;20408;-72
2021/10/23 09:11:43;;;;;;;7.30;1.70;;;;;;;;;;8230206;28;20384;-74
2021/10/23 09:15:49;;;;;;;5.22;1.80;;;;;;;;;;8223465;28;20485;-74
2021/10/23 09:20:07;;;;;;;9.63;2.10;;;;;;;;;;8213835;28;20474;-73
2021/10/23 09:24:24;;;;;;;9.18;2.08;;;;;;;;;;8229153;28;20452;-73
2021/10/23 09:28:31;;;;;;;9.45;1.77;;;;;;;;;;8227938;28;20408;-73
2021/10/23 09:32:36;;;;;;;7.23;1.33;;;;;;;;;;8228450;28;20478;-73
2021/10/23 09:37:03;;;;;;;8.85;1.65;;;;;;;;;;8229781;28;20057;-74
2021/10/23 09:41:18;;;;;;;8.88;1.55;;;;;;;;;;8228411;28;20041;-74
2021/10/23 09:45:23;;;;;;;6.25;1.77;;;;;;;;;;8211862;28;20354;-73
2021/10/23 09:49:28;;;;;;;8.52;1.70;;;;;;;;;;8228850;28;20377;-73
2021/10/23 09:53:38;;;;;;;7.30;2.22;;;;;;;;;;8228783;28;20381;-74
2021/10/23 09:57:43;;;;;;;15.35;5.47;;;;;;;;;;8212400;28;20358;-73
2021/10/23 10:01:49;;;;;;;14.88;1.92;;;;;;;;;;8226876;28;20045;-74
2021/10/23 10:05:58;;;;;;;10.63;3.45;;;;;;;;;;8227484;28;20045;-76
2021/10/23 10:10:04;;;;;;;7.88;1.92;;;;;;;;;;8227679;28;20472;-74
2021/10/23 10:14:12;;;;;;;7.57;1.98;;;;;;;;;;8226961;28;20377;-72
2021/10/23 10:18:20;;;;;;;10.50;3.92;;;;;;;;;;8226259;28;20473;-73
2021/10/23 10:22:26;;;;;;;11.18;2.72;;;;;;;;;;8196279;28;20361;-74
2021/10/23 10:26:36;;;;;;;9.45;2.40;;;;;;;;;;8228030;28;20095;-73
2021/10/23 10:30:46;;;;;;;9.43;2.20;;;;;;;;;;8242181;28;20368;-73
2021/10/23 10:35:19;;;;;;;6.65;2.25;;;;;;;;;;8226395;28;20049;-74
2021/10/23 10:39:53;;;;;;;7.78;2.47;;;;;;;;;;8227523;28;20452;-74
2021/10/23 10:44:19;;;;;;;5.82;1.95;;;;;;;;;;8227528;28;20480;-73
2021/10/23 10:48:27;;;;;;;8.50;1.92;;;;;;;;;;8227162;28;20058;-74
2021/10/23 10:52:43;;;;;;;13.02;1.80;;;;;;;;;;8228408;28;20457;-73
2021/10/23 10:56:52;;;;;;;8.70;1.80;;;;;;;;;;8226738;28;20459;-74
2021/10/23 11:01:03;;;;;;;8.07;1.50;;;;;;;;;;8240795;28;20350;-73
2021/10/23 11:05:21;;;;;;;7.35;1.92;;;;;;;;;;8226311;28;20051;-74
2021/10/23 11:09:31;;;;;;;7.63;2.55;;;;;;;;;;8226766;28;20369;-70
2021/10/23 11:13:44;;;;;;;6.38;1.52;;;;;;;;;;8227149;28;20457;-72
2021/10/23 11:17:54;;;;;;;16.33;5.25;;;;;;;;;;8225797;28;20377;-73
2021/10/23 11:22:30;;;;;;;9.82;4.10;;;;;;;;;;8209543;28;20457;-72
2021/10/23 11:26:35;;;;;;;8.63;2.58;;;;;;;;;;8223715;28;20445;-74
2021/10/23 11:30:44;;;;;;;5.82;1.55;;;;;;;;;;8225400;28;20379;-72
2021/10/23 11:34:49;;;;;;;6.05;1.80;;;;;;;;;;8226451;28;20420;-73
2021/10/23 11:38:55;;;;;;;6.43;1.73;;;;;;;;;;8241379;28;20376;-75
2021/10/23 11:43:00;;;;;;;9.82;1.30;;;;;;;;;;8224118;28;20380;-73
2021/10/23 11:47:05;;;;;;;6.07;1.50;;;;;;;;;;8225959;28;20063;-74
2021/10/23 11:51:10;;;;;;;7.43;2.15;;;;;;;;;;8224022;28;20380;-74
2021/10/23 11:55:36;;;;;;;8.63;2.20;;;;;;;;;;8227156;28;20460;-74
2021/10/23 11:59:41;;;;;;;11.90;2.72;;;;;;;;;;8225666;28;20468;-75
2021/10/23 12:03:49;;;;;;;12.98;2.63;;;;;;;;;;8223874;28;20449;-73
2021/10/23 12:08:21;;;;;;;6.97;2.17;;;;;;;;;;8239752;28;20480;-74
2021/10/23 12:12:26;;;;;;;5.95;2.67;;;;;;;;;;8224421;28;20053;-73
2021/10/23 12:16:57;;;;;;;14.85;4.07;;;;;;;;;;8224569;28;20527;-72
2021/10/23 12:21:19;;;;;;;11.25;3.55;;;;;;;;;;8222491;28;20053;-72
2021/10/23 12:25:30;;;;;;;11.57;2.72;;;;;;;;;;8227346;28;20487;-73
2021/10/23 12:29:52;;;;;;;13.02;3.03;;;;;;;;;;8223771;28;20049;-72
2021/10/23 12:34:06;;;;;;;9.88;3.20;;;;;;;;;;8226274;28;20468;-74
2021/10/23 12:38:11;;;;;;;4.97;2.10;;;;;;;;;;8227029;28;20049;-73
2021/10/23 12:42:17;;;;;;;8.25;2.10;;;;;;;;;;8230931;28;20381;-71
2021/10/23 12:46:22;;;;;;;6.97;2.17;;;;;;;;;;8229571;28;20483;-75
2021/10/23 12:50:27;;;;;;;7.75;2.05;;;;;;;;;;8230787;28;20353;-72
2021/10/23 12:54:32;;;;;;;12.57;5.47;;;;;;;;;;8228773;28;20342;-73
2021/10/23 12:58:37;;;;;;;7.68;3.00;;;;;;;;;;8228877;28;20518;-72
2021/10/23 13:02:44;;;;;;;8.82;3.58;;;;;;;;;;8231019;28;20465;-73
2021/10/23 13:06:49;;;;;;;12.18;5.70;;;;;;;;;;8213463;28;20076;-72
2021/10/23 13:10:54;;;;;;;8.20;3.17;;;;;;;;;;8229314;28;20045;-72
2021/10/23 13:14:59;;;;;;;10.85;3.08;;;;;;;;;;8229044;28;20412;-72
2021/10/23 13:19:04;;;;;;;8.63;3.40;;;;;;;;;;8229047;28;20480;-72
2021/10/23 13:23:09;;;;;;;10.15;3.38;;;;;;;;;;8230227;28;20332;-73
2021/10/23 13:27:15;;;;;;;9.20;3.13;;;;;;;;;;8228605;28;20397;-72
2021/10/23 13:31:24;;;;;;;6.97;2.20;;;;;;;;;;8228928;28;20376;-72
2021/10/23 13:35:29;;;;;;;9.93;2.97;;;;;;;;;;8228014;28;20492;-72
2021/10/23 13:39:35;;;;;;;15.93;3.63;;;;;;;;;;8229883;28;20361;-73
2021/10/23 13:43:40;;;;;;;26.42;7.55;;;;;;;;;;8229184;28;20068;-72
2021/10/23 13:47:45;;;;;;;9.88;3.55;;;;;;;;;;8228750;28;20029;-72
2021/10/23 13:51:50;;;;;;;16.33;3.75;;;;;;;;;;8229019;28;20555;-73
2021/10/23 13:55:55;;;;;;;17.85;5.60;;;;;;;;;;8228391;28;20104;-72
2021/10/23 14:00:00;;;;;;;11.70;4.03;;;;;;;;;;8211038;28;20392;-72
2021/10/23 14:04:08;;;;;;;13.70;4.25;;;;;;;;;;8228902;28;20441;-74
2021/10/23 14:08:13;;;;;;;21.77;7.53;;;;;;;;;;8227357;28;20352;-74
2021/10/23 14:12:20;;;;;;;10.93;2.83;;;;;;;;;;8227898;28;20407;-73
2021/10/23 14:16:24;;;;;;;15.05;4.43;;;;;;;;;;8226640;28;20072;-74
2021/10/23 14:20:30;;;;;;;4.20;1.35;;;;;;;;;;8210794;28;20050;-72
2021/10/23 14:24:35;;;;;;;7.93;2.40;;;;;;;;;;8211065;28;20340;-72
2021/10/23 14:28:41;;;;;;;8.95;3.00;;;;;;;;;;8226337;28;20364;-75
2021/10/23 14:32:46;;;;;;;16.15;3.72;;;;;;;;;;8227038;28;20456;-75
2021/10/23 14:36:51;;;;;;;12.07;4.20;;;;;;;;;;8227725;28;20075;-75
2021/10/23 14:40:57;;;;;;;17.10;5.88;;;;;;;;;;8226663;28;20469;-76
2021/10/23 14:45:02;;;;;;;17.30;5.65;;;;;;;;;;8228887;28;20092;-75
2021/10/23 14:49:07;;;;;;;18.90;7.70;;;;;;;;;;8229986;28;20550;-75
2021/10/23 14:53:12;;;;;;;14.38;6.20;;;;;;;;;;8227251;28;20511;-76
2021/10/23 14:57:17;;;;;;;15.77;5.72;;;;;;;;;;8227760;28;20396;-75
2021/10/23 15:01:22;;;;;;;16.70;7.35;;;;;;;;;;8225608;28;20045;-75
2021/10/23 15:05:28;;;;;;;12.80;5.78;;;;;;;;;;8226918;28;20499;-75
2021/10/23 15:09:32;;;;;;;9.77;3.22;;;;;;;;;;8226588;28;20404;-76
2021/10/23 15:13:37;;;;;;;6.53;2.15;;;;;;;;;;8231656;28;20372;-76
2021/10/23 15:17:43;;;;;;;45.53;17.08;;;;;;;;;;8233410;28;20487;-77
2021/10/23 15:21:50;;;;;;;20.33;10.63;;;;;;;;;;8231444;28;20449;-76
2021/10/23 15:25:56;;;;;;;18.30;8.75;;;;;;;;;;8228565;28;20364;-76
2021/10/23 15:30:02;;;;;;;13.40;4.85;;;;;;;;;;8211306;28;20053;-76
2021/10/23 15:34:06;;;;;;;15.35;6.10;;;;;;;;;;8228767;28;20349;-76
2021/10/23 15:38:13;;;;;;;11.93;5.18;;;;;;;;;;8226004;28;20064;-76
2021/10/23 15:42:19;;;;;;;12.20;5.13;;;;;;;;;;8242230;28;20472;-76
2021/10/23 15:46:24;;;;;;;27.48;12.45;;;;;;;;;;8226581;28;20053;-76
2021/10/23 15:50:30;;;;;;;45.70;20.52;;;;;;;;;;8226033;28;20477;-76
2021/10/23 15:54:36;;;;;;;25.83;10.63;;;;;;;;;;8224728;28;20453;-76
2021/10/23 15:58:41;;;;;;;20.48;8.95;;;;;;;;;;8226832;28;20480;-76
2021/10/23 16:02:46;;;;;;;19.27;8.38;;;;;;;;;;8225745;28;20037;-76
2021/10/23 16:06:52;;;;;;;23.10;9.40;;;;;;;;;;8226610;28;20045;-76
2021/10/23 16:10:57;;;;;;;23.98;9.63;;;;;;;;;;8226327;28;20498;-76
2021/10/23 16:15:07;;;;;;;25.50;10.38;;;;;;;;;;8224923;28;20369;-76
2021/10/23 16:19:14;;;;;;;34.95;12.10;;;;;;;;;;8223477;28;20465;-76
2021/10/23 16:23:19;;;;;;;34.40;12.63;;;;;;;;;;8223670;28;20464;-76
2021/10/23 16:27:25;;;;;;;40.35;15.77;;;;;;;;;;8224760;28;20064;-76
2021/10/23 16:31:31;;;;;;;37.15;14.75;;;;;;;;;;8231335;28;20383;-76
2021/10/23 16:35:36;;;;;;;33.90;16.23;;;;;;;;;;8233249;28;20365;-76
2021/10/23 16:39:41;;;;;;;35.65;15.80;;;;;;;;;;8194188;28;20494;-75
2021/10/23 16:43:47;;;;;;;41.78;18.13;;;;;;;;;;8223055;28;20472;-75
2021/10/23 16:47:52;;;;;;;53.53;20.90;;;;;;;;;;8206712;28;20049;-75
2021/10/23 16:52:01;;;;;;;49.45;19.40;;;;;;;;;;8224345;28;20361;-75
2021/10/23 16:56:06;;;;;;;40.42;14.90;;;;;;;;;;8225262;28;20433;-75
2021/10/23 17:00:12;;;;;;;28.90;11.48;;;;;;;;;;8224440;28;20472;-75
2021/10/23 17:04:17;;;;;;;25.35;9.38;;;;;;;;;;8223911;28;20353;-75
2021/10/23 17:08:23;;;;;;;35.75;14.05;;;;;;;;;;8224418;28;20346;-75
2021/10/23 17:12:28;;;;;;;27.48;11.63;;;;;;;;;;8226158;28;20479;-75
2021/10/23 17:16:32;;;;;;;42.42;14.52;;;;;;;;;;8223480;28;20507;-75
2021/10/23 17:20:37;;;;;;;73.00;22.45;;;;;;;;;;8224843;28;20461;-75
2021/10/23 17:24:43;;;;;;;85.55;31.58;;;;;;;;;;8223109;28;20487;-75
2021/10/23 17:28:48;;;;;;;79.55;25.20;;;;;;;;;;8229360;28;20368;-75
2021/10/23 17:32:54;;;;;;;53.72;19.58;;;;;;;;;;8230716;28;20477;-75
2021/10/23 17:36:59;;;;;;;49.53;16.77;;;;;;;;;;8229384;28;20483;-75
2021/10/23 17:41:05;;;;;;;38.50;14.48;;;;;;;;;;8213196;28;20342;-75
2021/10/23 17:45:11;;;;;;;52.03;16.08;;;;;;;;;;8228847;28;20373;-75
2021/10/23 17:49:18;;;;;;;44.50;14.07;;;;;;;;;;8228866;28;20046;-75
2021/10/23 17:53:23;;;;;;;49.60;14.15;;;;;;;;;;8227921;28;20057;-75
2021/10/23 17:57:28;;;;;;;46.00;17.10;;;;;;;;;;8228944;28;20059;-75
2021/10/23 18:01:33;;;;;;;49.67;17.98;;;;;;;;;;8229344;28;20334;-75
2021/10/23 18:05:40;;;;;;;44.92;15.27;;;;;;;;;;8228476;28;20045;-75
2021/10/23 18:09:45;;;;;;;49.95;15.55;;;;;;;;;;8227535;28;20461;-75
2021/10/23 18:13:51;;;;;;;50.63;17.33;;;;;;;;;;8229574;28;20068;-74
2021/10/23 18:18:06;;;;;;;91.32;27.38;;;;;;;;;;8227213;28;20480;-75
2021/10/23 18:22:11;;;;;;;49.40;16.05;;;;;;;;;;8228479;28;20063;-75
2021/10/23 18:26:17;;;;;;;50.50;17.33;;;;;;;;;;8230627;28;20483;-74
2021/10/23 18:30:22;;;;;;;37.58;13.02;;;;;;;;;;8226765;28;20046;-75
2021/10/23 18:34:27;;;;;;;43.03;16.67;;;;;;;;;;8226514;28;20448;-74
2021/10/23 18:38:34;;;;;;;38.50;16.15;;;;;;;;;;8241660;28;20449;-74
2021/10/23 18:42:41;;;;;;;35.90;16.03;;;;;;;;;;8227878;28;20064;-74
2021/10/23 18:46:46;;;;;;;45.92;16.20;;;;;;;;;;8226746;28;20476;-74
2021/10/23 18:50:52;;;;;;;43.63;16.38;;;;;;;;;;8226976;28;20479;-75
2021/10/23 18:54:57;;;;;;;35.97;14.80;;;;;;;;;;8226914;28;20482;-75
2021/10/23 18:59:02;;;;;;;30.55;11.88;;;;;;;;;;8226076;28;20057;-75
2021/10/23 19:03:08;;;;;;;27.17;12.25;;;;;;;;;;8226746;28;20461;-74
2021/10/23 19:07:13;;;;;;;37.95;12.85;;;;;;;;;;8226915;28;20465;-75
2021/10/23 19:11:19;;;;;;;46.67;15.63;;;;;;;;;;8225985;28;20392;-75
2021/10/23 19:15:24;;;;;;;41.85;13.52;;;;;;;;;;8223980;28;20053;-75
2021/10/23 19:19:29;;;;;;;46.47;16.23;;;;;;;;;;8227838;28;20477;-74
2021/10/23 19:23:37;;;;;;;50.67;17.88;;;;;;;;;;8227111;28;20380;-75
2021/10/23 19:27:51;;;;;;;44.80;18.30;;;;;;;;;;8225908;28;20042;-74
2021/10/23 19:31:56;;;;;;;31.52;13.20;;;;;;;;;;8224795;28;20330;-74
2021/10/23 19:36:02;;;;;;;31.63;10.65;;;;;;;;;;8225962;28;20064;-74
2021/10/23 19:40:09;;;;;;;21.38;9.63;;;;;;;;;;8225145;28;20469;-74
2021/10/23 19:44:14;;;;;;;22.75;9.73;;;;;;;;;;8225355;28;20479;-74
2021/10/23 19:48:20;;;;;;;25.90;10.98;;;;;;;;;;8225145;28;20448;-75
2021/10/23 19:52:25;;;;;;;33.03;13.57;;;;;;;;;;8225645;28;20049;-73
2021/10/23 19:56:30;;;;;;;38.97;14.82;;;;;;;;;;8224542;28;20406;-74
2021/10/23 20:00:36;;;;;;;28.70;13.38;;;;;;;;;;8223297;28;20487;-74
2021/10/23 20:04:41;;;;;;;54.92;23.42;;;;;;;;;;8223278;28;20362;-75
2021/10/23 20:08:47;;;;;;;35.92;12.80;;;;;;;;;;8226262;28;20339;-74
2021/10/23 20:12:52;;;;;;;39.53;14.55;;;;;;;;;;8224396;28;20424;-75
2021/10/23 20:16:56;;;;;;;38.08;15.30;;;;;;;;;;8223701;28;20067;-74
2021/10/23 20:21:01;;;;;;;38.65;14.50;;;;;;;;;;8225388;28;20376;-74
2021/10/23 20:25:07;;;;;;;34.85;14.02;;;;;;;;;;8224883;28;20400;-74
2021/10/23 20:29:13;;;;;;;30.33;12.43;;;;;;;;;;8222938;28;20334;-74
2021/10/23 20:33:19;;;;;;;32.30;13.32;;;;;;;;;;8224153;28;20457;-74
2021/10/23 20:37:25;;;;;;;32.80;13.15;;;;;;;;;;8224438;28;20045;-74
2021/10/23 20:41:30;;;;;;;34.08;13.45;;;;;;;;;;8224402;28;20484;-73
2021/10/23 20:45:35;;;;;;;35.38;12.93;;;;;;;;;;8222462;28;20042;-73
2021/10/23 20:49:41;;;;;;;41.08;13.20;;;;;;;;;;8223316;28;20438;-73
2021/10/23 20:53:47;;;;;;;37.55;13.80;;;;;;;;;;8223940;28;20487;-73
2021/10/23 20:57:52;;;;;;;92.30;21.42;;;;;;;;;;8224355;28;20072;-74
2021/10/23 21:02:00;;;;;;;54.88;16.25;;;;;;;;;;8244343;28;20068;-73
2021/10/23 21:06:06;;;;;;;41.85;14.05;;;;;;;;;;8229434;28;20449;-73
2021/10/23 21:10:11;;;;;;;34.45;14.48;;;;;;;;;;8230216;28;20049;-74
2021/10/23 21:14:16;;;;;;;36.90;12.90;;;;;;;;;;8229512;28;20068;-72
2021/10/23 21:18:23;;;;;;;35.50;13.68;;;;;;;;;;8212632;28;20045;-73
2021/10/23 21:22:27;;;;;;;45.65;14.27;;;;;;;;;;8229656;28;20475;-73
2021/10/23 21:26:32;;;;;;;40.17;13.27;;;;;;;;;;8229601;28;20356;-73
2021/10/23 21:30:38;;;;;;;39.55;12.32;;;;;;;;;;8227840;28;20372;-73
2021/10/23 21:34:43;;;;;;;40.90;13.82;;;;;;;;;;8229291;28;20080;-73
2021/10/23 21:38:48;;;;;;;40.67;14.23;;;;;;;;;;8228591;28;20484;-73
2021/10/23 21:42:53;;;;;;;42.90;12.82;;;;;;;;;;8230340;28;20483;-73
2021/10/23 21:46:58;;;;;;;38.08;14.00;;;;;;;;;;8228750;28;20338;-73
2021/10/23 21:51:08;;;;;;;43.80;15.05;;;;;;;;;;8227835;28;20073;-73
2021/10/23 21:55:13;;;;;;;54.55;17.35;;;;;;;;;;8230057;28;20330;-74
2021/10/23 21:59:18;;;;;;;47.00;17.30;;;;;;;;;;8229207;28;20368;-73
2021/10/23 22:03:24;;;;;;;49.38;17.67;;;;;;;;;;8228318;28;20461;-73
2021/10/23 22:07:29;;;;;;;50.67;17.00;;;;;;;;;;8226942;28;20045;-73
2021/10/23 22:11:34;;;;;;;50.03;17.63;;;;;;;;;;8227729;28;20457;-73
2021/10/23 22:15:39;;;;;;;46.08;16.80;;;;;;;;;;8230838;28;20483;-73
2021/10/23 22:19:47;;;;;;;52.10;18.52;;;;;;;;;;8227713;28;20473;-73
2021/10/23 22:23:52;;;;;;;45.93;16.57;;;;;;;;;;8229911;28;20045;-73
2021/10/23 22:27:57;;;;;;;47.80;16.95;;;;;;;;;;8230724;28;20930;-73
2021/10/23 22:32:03;;;;;;;40.97;16.17;;;;;;;;;;8230387;28;20361;-73
2021/10/23 22:36:08;;;;;;;42.67;17.00;;;;;;;;;;8227014;28;20500;-73
2021/10/23 22:40:13;;;;;;;40.83;15.75;;;;;;;;;;8228792;28;20677;-73
2021/10/23 22:44:18;;;;;;;35.80;14.80;;;;;;;;;;8227855;28;20471;-73
2021/10/23 22:48:23;;;;;;;41.85;14.43;;;;;;;;;;8229333;28;20041;-72
2021/10/23 22:52:29;;;;;;;37.13;13.60;;;;;;;;;;8228171;28;20468;-72
2021/10/23 22:56:34;;;;;;;39.45;13.35;;;;;;;;;;8227714;28;20041;-73
2021/10/23 23:00:39;;;;;;;34.90;13.15;;;;;;;;;;8227635;28;20389;-72
2021/10/23 23:04:44;;;;;;;34.67;13.98;;;;;;;;;;8226833;28;20045;-73
2021/10/23 23:08:49;;;;;;;52.42;15.93;;;;;;;;;;8226736;28;20465;-72
2021/10/23 23:12:54;;;;;;;36.30;13.27;;;;;;;;;;8225421;28;20384;-73
2021/10/23 23:16:58;;;;;;;43.08;13.82;;;;;;;;;;8226805;28;20064;-73
2021/10/23 23:21:06;;;;;;;32.97;12.93;;;;;;;;;;8242244;28;20060;-72
2021/10/23 23:25:11;;;;;;;29.50;11.52;;;;;;;;;;8224243;28;20364;-72
2021/10/23 23:29:16;;;;;;;48.45;15.48;;;;;;;;;;8227340;28;20441;-72
2021/10/23 23:33:22;;;;;;;45.63;14.23;;;;;;;;;;8226410;28;20068;-72
2021/10/23 23:37:27;;;;;;;40.55;14.20;;;;;;;;;;8226949;28;20345;-72
2021/10/23 23:41:33;;;;;;;35.47;13.27;;;;;;;;;;8225664;28;20444;-72
2021/10/23 23:45:39;;;;;;;42.60;13.70;;;;;;;;;;8223753;28;20076;-71
2021/10/23 23:49:44;;;;;;;37.67;13.77;;;;;;;;;;8225924;28;20045;-72
2021/10/23 23:53:49;;;;;;;40.30;14.52;;;;;;;;;;8225341;28;20453;-72
2021/10/23 23:57:54;;;;;;;49.45;16.58;;;;;;;;;;8225040;28;20396;-71
